Flight Track Log - Related Links

Times and Time Zones

All times are in EST time to prevent confusion due to time zone crossing. See the ASA51 flight status page for this flight to view local times or setup timezone preferences in your user account.

Time Position Orientation Groundspeed Altitude Reporting Facility
EST Latitude Longitude Course Direction KTS MPH feet Rate Location/Type
Wed 12:12:16 AM 71.2000 -156.5333 102° East 310 357 11,200  Level Anchorage Center
Wed 12:13:17 AM 71.1833 -156.2500 100° East 350 403 14,800 3,620 Climbing Anchorage Center
Wed 12:14:17 AM 71.1667 -155.9500 100° East 350 403 18,500 3,223 Climbing Anchorage Center
Wed 12:15:00 AM 71.0672 -154.9463 108° East  Level FlightAware Approximate
Wed 12:15:18 AM 71.1500 -155.6333 99° East 370 426 21,300  Level Anchorage Center
Wed 12:16:00 AM 71.0339 -154.6319 108° East  Level FlightAware Approximate
Wed 12:16:18 AM 71.1167 -155.3167 108° East 400 460 23,800  Level Anchorage Center
Wed 12:17:18 AM 71.0833 -154.9833 107° East 420 483 26,100 1,587 Climbing Anchorage Center
Wed 12:18:19 AM 71.0333 -154.6333 114° Southeast 430 495 27,000 446 Climbing Anchorage Center
Wed 12:19:19 AM 71.0000 -154.3000 107° East 430 495 27,000  Level Anchorage Center
Wed 12:20:19 AM 70.9667 -153.9667 107° East 420 483 27,000  Level Anchorage Center
Wed 12:21:20 AM 70.9167 -153.6333 115° Southeast 420 483 27,000  Level Anchorage Center
Wed 12:22:20 AM 70.8833 -153.3000 107° East 420 483 27,000  Level Anchorage Center
Wed 12:23:20 AM 70.8333 -152.9500 113° Southeast 420 483 27,000  Level Anchorage Center
Wed 12:24:20 AM 70.8000 -152.6167 107° East 420 483 27,000  Level Anchorage Center
Wed 12:25:21 AM 70.7500 -152.2833 114° Southeast 430 495 27,000  Level Anchorage Center
Wed 12:26:21 AM 70.7167 -151.9667 108° East 420 483 27,000  Level Anchorage Center
Wed 12:27:21 AM 70.6667 -151.6333 114° Southeast 430 495 27,000  Level Anchorage Center
Wed 12:28:22 AM 70.6167 -151.3000 114° Southeast 430 495 27,000  Level Anchorage Center
Wed 12:29:22 AM 70.5833 -150.9667 107° East 430 495 27,000 -800 Level Anchorage Center
Wed 12:30:22 AM 70.5333 -150.6500 115° Southeast 410 472 25,400 -1,983 Descending Anchorage Center
Wed 12:31:23 AM 70.4833 -150.3500 116° Southeast 390 449 23,000 -2,331 Descending Anchorage Center
Wed 12:32:23 AM 70.4500 -150.0667 109° East 370 426 20,700 -2,250 Descending Anchorage Center
Wed 12:33:23 AM 70.4000 -149.8000 119° Southeast 360 414 18,500 -2,083 Descending Anchorage Center
Wed 12:34:24 AM 70.3667 -149.5333 110° East 340 391 16,500 -2,033 Descending Anchorage Center
Wed 12:35:24 AM 70.3333 -149.2833 112° Southeast 340 391 14,400 -2,033 Descending Anchorage Center
Wed 12:36:25 AM 70.2833 -149.0500 122° Southeast 310 357 12,400 -1,785 Descending Anchorage Center
Wed 12:37:25 AM 70.2500 -148.8167 113° Southeast 290 334 10,800 -1,600 Descending Anchorage Center
Wed 12:38:25 AM 70.2167 -148.6167 116° Southeast 280 322 9,200 -1,591 Descending Anchorage Center
Wed 12:40:26 AM 70.2167 -148.1667 90° East 280 322 6,000 -1,293 Descending Anchorage Center
Wed 12:41:26 AM 70.2500 -148.0167 57° Northeast 240 276 5,300 -744 Descending Anchorage Center
Wed 12:42:27 AM 70.3000 -147.9167 34° Northeast 240 276 4,500 -793 Descending Anchorage Center
Wed 12:43:27 AM 70.2500 -147.8500 156° South 210 242 3,700 -700 Descending Anchorage Center
Wed 12:44:27 AM 70.2333 -147.9833 250° West 210 242 3,100 -595 Descending Anchorage Center
Wed 12:45:28 AM 70.2167 -148.1333 252° West 170 196 2,500 -645 Descending Anchorage Center
Wed 12:46:28 AM 70.2000 -148.2500 247° West 150 173 1,800 -700 Descending Anchorage Center
Wed 12:47:28 AM 70.2000 -148.3333 270° West 110 127 1,100 -843 Descending Anchorage Center
Wed 12:48:29 AM 70.1833 -148.4333 244° Southwest 110 127 100 -984 Descending Anchorage Center

Login

Don't have an account? Register now (free) for customized features, flight alerts, and more!